Crescent City, Florida
Current Conditions -  °F | °C
As of 8:35 AM on Sunday 23 Nov 2014 (Local Time) from K28J Reporting Station
Overcast Overcast  
Wind Chill: 72°   Ceiling: 800
Heat Index: 72°   Visibility: 10mi
Dew Point: 72°   Wind: 13mph
Humidity: 100%   Direction: 180°S
Pressure: 30"   Gusts: 17mph
Location:  29.43°N, 81.51°W
Report Text: K28J 231335Z AUTO 18011G15KT 10SM OVC008 22/22 A3000 RMK AO2
Loading
Personal Weather Stations






























Interactive Weather Map New forecast layout! Learn more

10-Day Weather Forecast

Advertisements
Track Severe Weather on mobile